Airfield :
LOGIN :

Register | Disclaimer

   EN    FR    IT 

 










Legend :    VFR   Marginal VFR   IFR   Intensive IFR   Very Intensive IFR
Visi :
Ceiling :
>= 8 km
>= 3000ft
5 to 8 km
1000 to 3000 ft
1500m to 5 km
500 to 1000 ft
800 to 1500m
200 to 500 ft
< 800m
< 200 ft
Symbols :   Thunderstorms  Fog  Heavy snow  Heavy precipitations  Wind > 20 kt
SIGMETs :     Misc.  Thunderstorms  Icing  Turbulence  Mountain Waves  Volcanic Ashes







- Airport Elevation : 290 ft
- IATA code : ACI
- Download approach charts


EGJA - Alderney

METAR N/A
TAF TAF EGJA
Valid from the 26 at 15:00 until the 27 at 00:00 UTC


261406Z 2615/2700 06022G34KT 4000 BR BKN003
TEMPO 2615/2617 0900 FG BKN010
BECMG 2617/2619 07026G44KT 9999 SCT005
No reported NOTAMs for that airfield.
1 SIGMET reported for the Brest FIR (LFRR) :
 
Frequent thunderstorms
LFRR SIGMET 9 VALID 262230/270230 LFPW
LFRR BREST FIR/UIR FRQ TS FCST WI N4545 W00545 - N4545 W00715 - N4645 W00700 - N4700 W00530 - N4545 W00545 TOP FL380 MOV N 20KT NC=



MET'MAP, your aeronautical weather chart ! - Copyright ORBIFLY December 2007 - Disclaimer

ORBIFLY MET'MAP TEAM :

Programming & Development : Alexandra Zaïnal
Concept & Development : Baudouin d'Aumeries
Co-Development & Prog : Marc-Olivier Méhu
Technical & hardware support : Manuel Goepfert

Contact : metmap@orbifly.com




SOURCES & CREDITS :

   NOAA